createdAt,value
2017-04-23T00:00:42.761Z,3.47
2017-04-23T00:01:40.569Z,3.34
2017-04-23T00:02:38.453Z,3.31
2017-04-23T00:03:36.288Z,3.69
2017-04-23T00:04:34.173Z,3.46
2017-04-23T00:05:32.033Z,3.46
2017-04-23T00:06:29.812Z,2.70
2017-04-23T00:07:27.641Z,3.43
2017-04-23T00:08:25.455Z,3.86
2017-04-23T00:09:23.249Z,3.74
2017-04-23T00:10:21.111Z,3.59
2017-04-23T00:11:18.926Z,3.80
2017-04-23T00:12:16.741Z,3.10
2017-04-23T00:13:14.521Z,3.71
2017-04-23T00:14:12.356Z,3.29
2017-04-23T00:15:10.143Z,3.37
2017-04-23T00:16:08.718Z,3.59
2017-04-23T00:17:07.334Z,3.24
2017-04-23T00:18:05.143Z,3.69
2017-04-23T00:19:03.030Z,3.40
2017-04-23T00:20:00.821Z,3.87
2017-04-23T00:20:58.629Z,2.94
2017-04-23T00:21:56.437Z,3.27
2017-04-23T00:22:54.269Z,3.53
2017-04-23T00:23:52.082Z,3.31
2017-04-23T00:24:49.859Z,3.37
2017-04-23T00:25:47.675Z,3.10
2017-04-23T00:26:45.513Z,3.07
2017-04-23T00:27:43.310Z,3.70
2017-04-23T00:28:41.114Z,3.94
2017-04-23T00:29:38.913Z,3.80
2017-04-23T00:30:36.715Z,3.60
2017-04-23T00:31:34.503Z,3.67
2017-04-23T00:32:33.077Z,3.43
2017-04-23T00:33:31.619Z,3.99
2017-04-23T00:34:29.419Z,3.43
2017-04-23T00:35:28.189Z,3.33
2017-04-23T00:36:26.825Z,3.46
2017-04-23T00:37:24.719Z,3.53
2017-04-23T00:38:23.255Z,3.93
2017-04-23T00:39:21.200Z,3.31
2017-04-23T00:40:19.029Z,3.49
2017-04-23T00:41:16.861Z,3.33
2017-04-23T00:42:14.683Z,3.54
2017-04-23T00:43:12.514Z,3.09
2017-04-23T00:44:10.350Z,3.20
2017-04-23T00:45:08.212Z,3.83
2017-04-23T00:46:06.013Z,3.54
2017-04-23T00:47:03.862Z,2.97
2017-04-23T00:48:01.723Z,3.29
2017-04-23T00:48:59.513Z,3.41
2017-04-23T00:49:57.291Z,3.84
2017-04-23T00:50:55.093Z,3.21
2017-04-23T00:51:52.875Z,3.20
2017-04-23T00:52:51.418Z,3.73
2017-04-23T00:53:49.213Z,3.49
2017-04-23T00:54:47.741Z,4.09
2017-04-23T00:55:45.529Z,3.30
2017-04-23T00:56:44.057Z,3.64
2017-04-23T00:57:41.862Z,3.87
2017-04-23T00:58:40.409Z,4.14
2017-04-23T00:59:38.197Z,3.84
2017-04-23T01:00:36.063Z,3.66
2017-04-23T01:01:33.895Z,3.29
2017-04-23T01:02:32.544Z,3.96
2017-04-23T01:03:31.129Z,4.00
2017-04-23T01:04:28.957Z,3.76
2017-04-23T01:05:26.764Z,3.93
2017-04-23T01:06:25.342Z,4.13
2017-04-23T01:07:23.934Z,3.71
2017-04-23T01:08:21.761Z,3.70
2017-04-23T01:09:19.578Z,3.70
2017-04-23T01:10:17.395Z,3.74
2017-04-23T01:11:15.188Z,4.26
2017-04-23T01:12:13.078Z,4.20
2017-04-23T01:13:11.665Z,4.06
2017-04-23T01:14:09.477Z,4.37
2017-04-23T01:15:07.357Z,4.01
2017-04-23T01:16:05.993Z,3.39
2017-04-23T01:17:03.880Z,4.23
2017-04-23T01:18:01.669Z,4.07
2017-04-23T01:18:59.520Z,3.60
2017-04-23T01:19:57.320Z,3.60
2017-04-23T01:20:55.133Z,4.19
2017-04-23T01:21:53.007Z,4.67
2017-04-23T01:22:50.993Z,4.19
2017-04-23T01:23:48.795Z,4.41
2017-04-23T01:24:47.377Z,3.80
2017-04-23T01:25:45.182Z,3.74
2017-04-23T01:26:43.141Z,3.71
2017-04-23T01:27:41.022Z,3.77
2017-04-23T01:28:39.612Z,3.71
2017-04-23T01:29:38.249Z,3.77
2017-04-23T01:30:36.075Z,4.00
2017-04-23T01:31:33.895Z,3.93
2017-04-23T01:32:32.550Z,3.54
2017-04-23T01:33:30.492Z,4.27
2017-04-23T01:34:28.353Z,3.86
2017-04-23T01:35:26.270Z,4.33
2017-04-23T01:36:24.101Z,3.87
2017-04-23T01:37:22.697Z,3.30
2017-04-23T01:38:20.489Z,3.84
2017-04-23T01:39:18.301Z,3.36
2017-04-23T01:40:16.206Z,3.71
2017-04-23T01:41:14.105Z,3.67
2017-04-23T01:42:12.080Z,3.49
2017-04-23T01:43:09.886Z,4.06
2017-04-23T01:44:07.731Z,3.84
2017-04-23T01:45:05.716Z,3.76
2017-04-23T01:46:04.304Z,3.89
2017-04-23T01:47:02.097Z,3.56
2017-04-23T01:47:59.897Z,3.30
2017-04-23T01:48:57.778Z,3.59
2017-04-23T01:49:55.588Z,4.09
2017-04-23T01:50:53.469Z,3.41
2017-04-23T01:51:52.064Z,3.29
2017-04-23T01:52:49.855Z,4.01
2017-04-23T01:53:47.647Z,4.41
2017-04-23T01:54:45.503Z,4.20
2017-04-23T01:55:44.029Z,4.54
2017-04-23T01:56:41.837Z,4.96
2017-04-23T01:57:40.500Z,4.07
2017-04-23T01:58:38.318Z,3.76
2017-04-23T01:59:36.125Z,3.71
2017-04-23T02:00:34.857Z,3.43
2017-04-23T02:01:32.684Z,3.50
2017-04-23T02:02:30.709Z,3.74
2017-04-23T02:03:28.553Z,3.50
2017-04-23T02:04:26.454Z,3.70
2017-04-23T02:05:24.349Z,4.07
2017-04-23T02:06:22.202Z,3.40
2017-04-23T02:07:20.025Z,4.06
2017-04-23T02:08:17.950Z,3.64
2017-04-23T02:09:16.523Z,3.77
2017-04-23T02:10:15.170Z,3.56
2017-04-23T02:11:12.979Z,3.79
2017-04-23T02:12:10.778Z,3.81
2017-04-23T02:13:08.621Z,4.43
2017-04-23T02:14:06.458Z,4.34
2017-04-23T02:15:04.480Z,4.07
2017-04-23T02:16:03.050Z,3.23
2017-04-23T02:17:01.656Z,3.86
2017-04-23T02:17:59.482Z,3.53
2017-04-23T02:18:57.279Z,4.30
2017-04-23T02:19:55.316Z,3.79
2017-04-23T02:20:53.154Z,4.54
2017-04-23T02:21:51.007Z,3.57
2017-04-23T02:22:49.550Z,4.70
2017-04-23T02:23:47.389Z,4.79
2017-04-23T02:24:45.290Z,4.83
2017-04-23T02:25:43.866Z,4.11
2017-04-23T02:26:42.440Z,3.97
2017-04-23T02:27:41.045Z,4.64
2017-04-23T02:28:38.834Z,4.39
2017-04-23T02:29:36.658Z,4.77
2017-04-23T02:30:34.829Z,4.31
2017-04-23T02:31:32.642Z,4.27
2017-04-23T02:32:31.281Z,4.07
2017-04-23T02:33:29.137Z,4.26
2017-04-23T02:34:26.994Z,4.61
2017-04-23T02:35:24.818Z,4.60
2017-04-23T02:36:22.678Z,4.74
2017-04-23T02:37:20.537Z,4.31
2017-04-23T02:38:18.346Z,4.14
2017-04-23T02:39:16.173Z,4.10
2017-04-23T02:40:14.068Z,4.37
2017-04-23T02:41:12.642Z,4.47
2017-04-23T02:42:11.182Z,4.47
2017-04-23T02:43:09.004Z,4.11
2017-04-23T02:44:06.817Z,4.47
2017-04-23T02:45:04.687Z,4.76
2017-04-23T02:46:02.514Z,4.47
2017-04-23T02:47:00.326Z,5.11
2017-04-23T02:47:58.269Z,4.34
2017-04-23T02:48:56.154Z,4.61
2017-04-23T02:49:54.002Z,4.50
2017-04-23T02:50:51.857Z,5.11
2017-04-23T02:51:49.725Z,4.81
2017-04-23T02:52:47.526Z,4.76
2017-04-23T02:53:46.085Z,4.94
2017-04-23T02:54:43.882Z,5.23
2017-04-23T02:55:41.683Z,5.23
2017-04-23T02:56:39.520Z,4.77
2017-04-23T02:57:37.374Z,5.30
2017-04-23T02:58:35.253Z,4.71
2017-04-23T02:59:33.089Z,4.67
2017-04-23T03:00:30.931Z,5.03
2017-04-23T03:01:28.794Z,4.87
2017-04-23T03:02:26.601Z,5.74
2017-04-23T03:03:24.431Z,5.40
2017-04-23T03:04:22.233Z,4.97
2017-04-23T03:05:20.065Z,5.34
2017-04-23T03:06:17.898Z,5.49
2017-04-23T03:07:15.782Z,5.47
2017-04-23T03:08:13.690Z,5.67
2017-04-23T03:09:11.497Z,5.71
2017-04-23T03:10:09.357Z,5.40
2017-04-23T03:11:07.906Z,4.90
2017-04-23T03:12:05.733Z,6.11
2017-04-23T03:13:03.584Z,6.11
2017-04-23T03:14:01.435Z,6.11
2017-04-23T03:14:59.299Z,6.03
2017-04-23T03:15:57.152Z,5.53
2017-04-23T03:16:55.108Z,5.93
2017-04-23T03:17:52.920Z,5.14
2017-04-23T03:18:50.749Z,4.91
2017-04-23T03:19:48.578Z,5.53
2017-04-23T03:20:46.477Z,5.80
2017-04-23T03:21:44.289Z,5.80
2017-04-23T03:22:42.145Z,6.11
2017-04-23T03:23:40.179Z,5.54
2017-04-23T03:24:38.003Z,4.36
2017-04-23T03:25:35.850Z,5.70
2017-04-23T03:26:33.702Z,5.24
2017-04-23T03:27:32.191Z,4.87
2017-04-23T03:28:30.753Z,5.37
2017-04-23T03:29:28.598Z,5.61
2017-04-23T03:30:26.479Z,4.89
2017-04-23T03:31:25.038Z,4.94
2017-04-23T03:32:22.895Z,5.43
2017-04-23T03:33:20.753Z,4.66
2017-04-23T03:34:18.576Z,5.37
2017-04-23T03:35:16.429Z,5.76
2017-04-23T03:36:14.344Z,5.76
2017-04-23T03:37:12.176Z,5.63
2017-04-23T03:38:09.997Z,7.31
2017-04-23T03:39:07.809Z,6.04
2017-04-23T03:40:05.641Z,6.00
2017-04-23T03:41:03.430Z,5.04
2017-04-23T03:42:01.280Z,5.93
2017-04-23T03:42:59.103Z,5.76
2017-04-23T03:43:56.932Z,5.46
2017-04-23T03:44:54.826Z,6.31
2017-04-23T03:45:52.782Z,5.76
2017-04-23T03:46:50.875Z,6.53
2017-04-23T03:47:49.039Z,5.83
2017-04-23T03:48:46.895Z,5.96
2017-04-23T03:49:44.788Z,5.31
2017-04-23T03:50:42.581Z,5.54
2017-04-23T03:51:41.249Z,6.21
2017-04-23T03:52:39.733Z,6.23
2017-04-23T03:53:38.361Z,5.31
2017-04-23T03:54:36.285Z,4.96
2017-04-23T03:55:34.108Z,6.06
2017-04-23T03:56:31.955Z,5.34
2017-04-23T03:57:29.815Z,5.83
2017-04-23T03:58:27.676Z,5.73
2017-04-23T03:59:25.545Z,6.00
2017-04-23T04:00:23.361Z,5.74
2017-04-23T04:01:21.242Z,5.24
2017-04-23T04:02:19.081Z,6.24
2017-04-23T04:03:16.913Z,6.07
2017-04-23T04:04:14.853Z,6.77
2017-04-23T04:05:12.686Z,5.34
2017-04-23T04:06:11.258Z,5.90
2017-04-23T04:07:09.856Z,5.57
2017-04-23T04:08:07.685Z,5.86
2017-04-23T04:09:05.509Z,6.33
2017-04-23T04:10:03.338Z,5.89
2017-04-23T04:11:01.179Z,5.89
2017-04-23T04:11:59.001Z,6.19
2017-04-23T04:12:56.805Z,5.31
2017-04-23T04:13:54.789Z,6.03
2017-04-23T04:14:52.790Z,5.97
2017-04-23T04:15:50.613Z,6.34
2017-04-23T04:16:53.036Z,6.20
2017-04-23T04:17:50.910Z,6.34
2017-04-23T04:18:48.719Z,6.04
2017-04-23T04:19:46.534Z,6.06
2017-04-23T04:20:44.361Z,6.14
2017-04-23T04:21:42.173Z,6.17
2017-04-23T04:22:40.001Z,6.40
2017-04-23T04:23:37.829Z,6.19
2017-04-23T04:24:35.678Z,6.10
2017-04-23T04:25:33.493Z,7.04
2017-04-23T04:26:31.365Z,6.13
2017-04-23T04:27:29.187Z,6.84
2017-04-23T04:28:27.024Z,6.46
2017-04-23T04:29:24.880Z,5.79
2017-04-23T04:30:22.686Z,6.04
2017-04-23T04:31:21.209Z,5.74
2017-04-23T04:32:19.050Z,5.70
2017-04-23T04:33:16.889Z,6.34
2017-04-23T04:34:14.739Z,5.44
2017-04-23T04:35:12.558Z,6.14
2017-04-23T04:36:10.369Z,6.64
2017-04-23T04:37:08.224Z,6.43
2017-04-23T04:38:06.118Z,6.40
2017-04-23T04:39:04.289Z,6.33
2017-04-23T04:40:02.097Z,5.77
2017-04-23T04:40:59.907Z,6.44
2017-04-23T04:41:57.722Z,5.97
2017-04-23T04:42:55.665Z,6.34
2017-04-23T04:43:53.476Z,7.14
2017-04-23T04:44:51.322Z,6.67
2017-04-23T04:45:49.832Z,6.79
2017-04-23T04:46:47.632Z,6.33
2017-04-23T04:47:45.489Z,6.86
2017-04-23T04:48:43.373Z,6.13
2017-04-23T04:49:41.201Z,6.76
2017-04-23T04:50:39.072Z,9.14
2017-04-23T04:51:36.885Z,6.54
2017-04-23T04:52:34.740Z,7.19
2017-04-23T04:53:32.610Z,6.40
2017-04-23T04:54:30.495Z,7.23
2017-04-23T04:55:28.337Z,6.29
2017-04-23T04:56:26.165Z,6.81
2017-04-23T04:57:23.985Z,7.21
2017-04-23T04:58:21.825Z,5.73
2017-04-23T04:59:19.632Z,6.70
2017-04-23T05:00:17.497Z,5.86
2017-04-23T05:01:15.413Z,5.94
2017-04-23T05:02:13.246Z,6.23
2017-04-23T05:03:11.100Z,6.13
2017-04-23T05:04:08.919Z,6.17
2017-04-23T05:05:06.737Z,6.76
2017-04-23T05:06:05.299Z,6.34
2017-04-23T05:07:03.123Z,6.36
2017-04-23T05:08:00.913Z,6.91
2017-04-23T05:08:58.753Z,6.83
2017-04-23T05:09:56.565Z,6.70
2017-04-23T05:10:54.321Z,6.37
2017-04-23T05:11:52.133Z,6.80
2017-04-23T05:12:49.934Z,6.74
2017-04-23T05:13:47.744Z,5.19
2017-04-23T05:14:46.301Z,6.71
2017-04-23T05:15:44.114Z,5.91
2017-04-23T05:16:41.930Z,6.61
2017-04-23T05:17:39.747Z,6.84
2017-04-23T05:18:37.585Z,6.93
2017-04-23T05:19:35.481Z,6.96
2017-04-23T05:20:33.314Z,5.11
2017-04-23T05:21:31.129Z,7.87
2017-04-23T05:22:28.909Z,6.03
2017-04-23T05:23:26.706Z,6.93
2017-04-23T05:24:24.517Z,7.30
2017-04-23T05:25:22.282Z,7.04
2017-04-23T05:26:20.114Z,5.81
2017-04-23T05:27:17.931Z,7.03
2017-04-23T05:28:15.787Z,8.29
2017-04-23T05:29:13.597Z,6.77
2017-04-23T05:30:11.417Z,7.49
2017-04-23T05:31:09.213Z,6.64
2017-04-23T05:32:07.033Z,5.99
2017-04-23T05:33:04.825Z,6.03
2017-04-23T05:34:02.623Z,6.64
2017-04-23T05:35:01.188Z,6.63
2017-04-23T05:35:58.981Z,6.74
2017-04-23T05:36:56.825Z,6.89
2017-04-23T05:37:54.618Z,7.04
2017-04-23T05:38:52.421Z,7.11
2017-04-23T05:39:50.273Z,6.87
2017-04-23T05:40:48.142Z,7.30
2017-04-23T05:41:46.632Z,6.97
2017-04-23T05:42:44.421Z,7.47
2017-04-23T05:43:42.217Z,6.56
2017-04-23T05:44:40.789Z,6.97
2017-04-23T05:45:39.309Z,6.13
2017-04-23T05:46:37.153Z,7.01
2017-04-23T05:47:34.930Z,6.53
2017-04-23T05:48:32.953Z,6.59
2017-04-23T05:49:30.758Z,6.30
2017-04-23T05:50:28.555Z,6.43
2017-04-23T05:51:26.354Z,6.74
2017-04-23T05:52:24.139Z,6.50
2017-04-23T05:53:21.937Z,5.40
2017-04-23T05:54:19.801Z,7.06
2017-04-23T05:55:17.578Z,6.84
2017-04-23T05:56:15.415Z,7.51
2017-04-23T05:57:13.657Z,6.40
2017-04-23T05:58:11.487Z,6.61
2017-04-23T05:59:09.312Z,8.01
2017-04-23T06:00:07.153Z,6.73
2017-04-23T06:01:04.969Z,6.59
2017-04-23T06:02:02.766Z,6.20
2017-04-23T06:03:00.589Z,6.13
2017-04-23T06:03:58.373Z,6.64
2017-04-23T06:04:56.246Z,6.27
2017-04-23T06:05:54.024Z,6.26
2017-04-23T06:06:52.570Z,6.10
2017-04-23T06:07:50.382Z,5.76
2017-04-23T06:08:48.194Z,6.50
2017-04-23T06:09:46.810Z,6.87
2017-04-23T06:10:44.854Z,7.29
2017-04-23T06:11:43.401Z,7.07
2017-04-23T06:12:41.201Z,6.90
2017-04-23T06:13:39.038Z,6.59
2017-04-23T06:14:36.925Z,5.31
2017-04-23T06:15:34.726Z,6.16
2017-04-23T06:16:33.237Z,6.03
2017-04-23T06:17:31.053Z,5.89
2017-04-23T06:18:28.833Z,6.19
2017-04-23T06:19:26.670Z,5.59
2017-04-23T06:20:24.497Z,6.19
2017-04-23T06:21:22.321Z,5.20
2017-04-23T06:22:20.112Z,5.94
2017-04-23T06:23:17.904Z,6.04
2017-04-23T06:24:16.541Z,5.70
2017-04-23T06:25:14.334Z,6.34
2017-04-23T06:26:12.161Z,5.84
2017-04-23T06:27:09.976Z,6.23
2017-04-23T06:28:07.761Z,6.34
2017-04-23T06:29:05.562Z,6.20
2017-04-23T06:30:03.444Z,6.44
2017-04-23T06:31:01.243Z,6.57
2017-04-23T06:31:59.044Z,5.76
2017-04-23T06:32:56.846Z,6.23
2017-04-23T06:33:54.621Z,6.50
2017-04-23T06:34:53.170Z,5.97
2017-04-23T06:35:51.041Z,5.60
2017-04-23T06:36:48.844Z,5.36
2017-04-23T06:37:46.835Z,4.46
2017-04-23T06:38:44.670Z,4.84
2017-04-23T06:39:42.498Z,4.86
2017-04-23T06:40:40.296Z,4.33
2017-04-23T06:41:38.112Z,5.53
2017-04-23T06:42:35.954Z,5.63
2017-04-23T06:43:33.736Z,4.21
2017-04-23T06:44:31.887Z,4.50
2017-04-23T06:45:29.901Z,4.16
2017-04-23T06:46:27.745Z,5.54
2017-04-23T06:47:25.541Z,4.97
2017-04-23T06:48:23.369Z,5.24
2017-04-23T06:49:21.925Z,4.56
2017-04-23T06:50:19.753Z,4.71
2017-04-23T06:51:17.568Z,5.51
2017-04-23T06:52:15.487Z,5.66
2017-04-23T06:53:13.307Z,4.86
2017-04-23T06:54:11.163Z,4.94
2017-04-23T06:55:08.973Z,4.00
2017-04-23T06:56:06.819Z,5.53
2017-04-23T06:57:04.665Z,4.41
2017-04-23T06:58:02.538Z,4.81
2017-04-23T06:59:00.361Z,5.00
2017-04-23T06:59:58.227Z,4.54
2017-04-23T07:00:56.069Z,4.84
2017-04-23T07:01:53.881Z,4.71
2017-04-23T07:02:51.717Z,5.26
2017-04-23T07:03:49.554Z,5.51
2017-04-23T07:04:47.403Z,4.47
2017-04-23T07:05:45.328Z,4.06
2017-04-23T07:06:43.125Z,4.39
2017-04-23T07:07:40.961Z,4.29
2017-04-23T07:08:38.781Z,4.60
2017-04-23T07:09:36.714Z,4.71
2017-04-23T07:10:34.585Z,5.14
2017-04-23T07:11:32.409Z,5.29
2017-04-23T07:12:30.544Z,4.24
2017-04-23T07:13:28.412Z,4.21
2017-04-23T07:14:27.044Z,4.76
2017-04-23T07:15:25.362Z,4.71
2017-04-23T07:16:23.347Z,4.70
2017-04-23T07:17:21.656Z,4.94
2017-04-23T07:18:19.471Z,5.16
2017-04-23T07:19:17.325Z,4.96
2017-04-23T07:20:15.775Z,4.99
2017-04-23T07:21:13.613Z,4.71
2017-04-23T07:22:11.453Z,5.29
2017-04-23T07:23:09.250Z,4.62
2017-04-23T07:24:07.451Z,2.17
2017-04-23T07:25:06.064Z,2.14
2017-04-23T07:26:03.917Z,2.27
2017-04-23T07:27:01.733Z,2.53
2017-04-23T07:28:00.326Z,1.93
2017-04-23T07:28:58.226Z,2.09
2017-04-23T07:29:56.197Z,2.17
2017-04-23T07:30:54.155Z,2.07
2017-04-23T07:31:53.049Z,2.33
2017-04-23T07:32:51.061Z,2.14
2017-04-23T07:33:49.154Z,2.59
2017-04-23T07:34:47.249Z,2.20
2017-04-23T07:35:45.219Z,1.97
2017-04-23T07:36:43.444Z,2.20
2017-04-23T07:37:41.504Z,2.30
2017-04-23T07:38:39.573Z,2.16
2017-04-23T07:39:37.706Z,1.91
2017-04-23T07:40:35.624Z,1.84
2017-04-23T07:41:33.710Z,2.01
2017-04-23T07:42:31.525Z,2.23
2017-04-23T07:43:30.064Z,2.17
2017-04-23T07:44:28.076Z,1.77
2017-04-23T07:45:26.102Z,1.80
2017-04-23T07:46:24.012Z,2.09
2017-04-23T07:47:21.858Z,1.73
2017-04-23T07:48:19.705Z,1.99
2017-04-23T07:49:17.682Z,2.04
2017-04-23T07:50:15.539Z,1.83
2017-04-23T07:51:13.345Z,1.99
2017-04-23T07:52:12.203Z,2.07
2017-04-23T07:53:10.234Z,2.14
2017-04-23T07:54:08.187Z,1.81
2017-04-23T07:55:06.205Z,1.93
2017-04-23T07:56:04.186Z,2.09
2017-04-23T07:57:02.820Z,2.03
2017-04-23T07:58:00.680Z,1.84
2017-04-23T07:58:58.626Z,1.96
2017-04-23T07:59:56.547Z,1.74
2017-04-23T08:00:54.459Z,1.99
2017-04-23T08:01:52.284Z,2.04
2017-04-23T08:02:50.182Z,2.51
2017-04-23T08:03:48.046Z,1.50
2017-04-23T08:04:46.605Z,2.36
2017-04-23T08:05:44.693Z,2.00
2017-04-23T08:06:42.617Z,1.91
2017-04-23T08:07:40.514Z,1.90
2017-04-23T08:08:39.078Z,2.33
2017-04-23T08:09:37.637Z,1.86
2017-04-23T08:10:35.478Z,1.90
2017-04-23T08:11:33.248Z,1.76
2017-04-23T08:12:31.114Z,2.07
2017-04-23T08:13:29.689Z,1.81
2017-04-23T08:14:28.222Z,2.27
2017-04-23T08:15:26.026Z,1.56
2017-04-23T08:16:24.617Z,1.79
2017-04-23T08:17:22.468Z,2.00
2017-04-23T08:18:21.715Z,1.86
2017-04-23T08:19:19.607Z,1.63
2017-04-23T08:20:17.436Z,2.04
2017-04-23T08:21:15.260Z,1.80
2017-04-23T08:22:13.113Z,1.53
2017-04-23T08:23:10.943Z,1.99
2017-04-23T08:24:08.753Z,2.19
2017-04-23T08:25:06.563Z,2.36
2017-04-23T08:26:04.377Z,1.74
2017-04-23T08:27:02.918Z,1.57
2017-04-23T08:28:00.729Z,2.19
2017-04-23T08:28:58.538Z,2.10
2017-04-23T08:29:56.367Z,1.70
2017-04-23T08:30:54.176Z,1.84
2017-04-23T08:31:52.022Z,1.96
2017-04-23T08:32:49.826Z,1.89
2017-04-23T08:33:47.646Z,2.07
2017-04-23T08:34:45.509Z,2.01
2017-04-23T08:35:43.338Z,2.34
2017-04-23T08:36:41.257Z,1.97
2017-04-23T08:37:39.216Z,2.30
2017-04-23T08:38:37.125Z,1.96
2017-04-23T08:39:35.673Z,2.10
2017-04-23T08:40:33.488Z,2.27
2017-04-23T08:41:31.319Z,2.07
2017-04-23T08:42:29.153Z,1.79
2017-04-23T08:43:26.955Z,2.06
2017-04-23T08:44:24.847Z,2.14
2017-04-23T08:45:22.680Z,2.01
2017-04-23T08:46:20.470Z,1.76
2017-04-23T08:47:18.957Z,2.17
2017-04-23T08:48:17.541Z,2.13
2017-04-23T08:49:16.088Z,1.86
2017-04-23T08:50:13.922Z,1.70
2017-04-23T08:51:11.809Z,2.16
2017-04-23T08:52:09.621Z,2.01
2017-04-23T08:53:07.479Z,1.70
2017-04-23T08:54:05.286Z,2.30
2017-04-23T08:55:03.922Z,1.87
2017-04-23T08:56:01.765Z,1.97
2017-04-23T08:56:59.635Z,2.09
2017-04-23T08:57:57.488Z,2.29
2017-04-23T08:58:55.333Z,2.27
2017-04-23T08:59:53.190Z,1.77
2017-04-23T09:00:51.054Z,1.99
2017-04-23T09:01:48.854Z,2.03
2017-04-23T09:02:47.453Z,2.09
2017-04-23T09:03:45.273Z,2.07
2017-04-23T09:04:43.069Z,2.00
2017-04-23T09:05:40.925Z,2.41
2017-04-23T09:06:38.772Z,2.64
2017-04-23T09:07:36.799Z,2.09
2017-04-23T09:08:34.680Z,2.34
2017-04-23T09:09:32.696Z,1.97
2017-04-23T09:10:30.512Z,2.29
2017-04-23T09:11:28.481Z,2.40
2017-04-23T09:12:26.330Z,2.93
2017-04-23T09:13:24.135Z,2.30
2017-04-23T09:14:22.598Z,3.09
2017-04-23T09:15:20.417Z,2.56
2017-04-23T09:16:18.230Z,2.87
2017-04-23T09:17:16.057Z,2.91
2017-04-23T09:18:13.890Z,3.10
2017-04-23T09:19:11.743Z,2.53
2017-04-23T09:20:09.680Z,2.96
2017-04-23T09:22:12.834Z,3.11
2017-04-23T09:23:11.457Z,2.60
2017-04-23T09:24:09.322Z,2.84
2017-04-23T09:25:07.169Z,3.19
2017-04-23T09:26:05.013Z,4.00
2017-04-23T09:27:02.850Z,2.67
2017-04-23T09:28:01.442Z,2.33
2017-04-23T09:28:59.217Z,3.49
2017-04-23T09:29:57.066Z,3.46
2017-04-23T09:30:54.949Z,3.53
2017-04-23T09:31:52.951Z,3.69
2017-04-23T09:32:50.889Z,3.69
2017-04-23T09:33:48.869Z,3.83
2017-04-23T09:34:46.687Z,3.56
2017-04-23T09:35:44.504Z,4.76
2017-04-23T09:36:42.345Z,3.87
2017-04-23T09:37:40.208Z,4.09
2017-04-23T09:38:38.306Z,3.77
2017-04-23T09:39:36.235Z,3.76
2017-04-23T09:40:34.409Z,3.96
2017-04-23T09:41:32.802Z,3.36
2017-04-23T09:42:30.653Z,4.90
2017-04-23T09:43:28.554Z,3.80
2017-04-23T09:44:27.310Z,4.56
2017-04-23T09:45:25.105Z,3.96
2017-04-23T09:46:23.044Z,3.06
2017-04-23T09:47:22.046Z,3.90
2017-04-23T09:48:20.045Z,3.66
2017-04-23T09:49:17.994Z,3.76
2017-04-23T09:50:15.869Z,3.90
2017-04-23T09:51:13.695Z,4.09
2017-04-23T09:52:11.613Z,2.79
2017-04-23T09:53:10.206Z,3.33
2017-04-23T09:54:08.077Z,3.57
2017-04-23T09:55:06.096Z,3.40
2017-04-23T09:56:04.656Z,3.81
2017-04-23T09:57:02.525Z,4.06
2017-04-23T09:58:00.385Z,3.89
2017-04-23T09:58:58.961Z,3.69
2017-04-23T09:59:57.493Z,3.63
2017-04-23T10:00:55.605Z,3.70
2017-04-23T10:01:53.473Z,3.56
2017-04-23T10:02:52.025Z,4.56
2017-04-23T10:04:57.546Z,3.94
2017-04-23T10:05:55.388Z,3.97
2017-04-23T10:06:53.277Z,3.60
2017-04-23T10:07:51.821Z,3.76
2017-04-23T10:08:49.722Z,4.09
2017-04-23T10:09:47.555Z,3.99
2017-04-23T10:10:45.505Z,4.19
2017-04-23T10:11:43.721Z,2.81
2017-04-23T10:12:41.762Z,2.63
2017-04-23T10:13:39.759Z,3.59
2017-04-23T10:14:38.275Z,3.44
2017-04-23T10:15:36.711Z,3.47
2017-04-23T10:16:35.332Z,3.63
2017-04-23T10:17:34.119Z,3.84
2017-04-23T10:18:32.468Z,3.57
2017-04-23T10:19:31.347Z,3.94
2017-04-23T10:20:29.277Z,3.26
2017-04-23T10:21:27.261Z,2.97
2017-04-23T10:22:27.518Z,3.27
2017-04-23T10:23:25.434Z,3.87
2017-04-23T10:24:24.096Z,3.70
2017-04-23T10:25:22.832Z,2.81
2017-04-23T10:26:20.911Z,3.77
2017-04-23T10:27:18.948Z,3.00
2017-04-23T10:28:17.743Z,2.97
2017-04-23T10:29:15.554Z,3.13
2017-04-23T10:30:13.421Z,3.60
2017-04-23T10:31:11.397Z,2.69
2017-04-23T10:32:09.257Z,3.29
2017-04-23T10:33:07.133Z,3.99
2017-04-23T10:34:05.143Z,3.34
2017-04-23T10:35:03.053Z,3.27
2017-04-23T10:36:00.983Z,3.54
2017-04-23T10:36:58.997Z,3.71
2017-04-23T10:37:57.110Z,3.01
2017-04-23T10:38:55.348Z,3.03
2017-04-23T10:39:53.408Z,3.81
2017-04-23T10:40:51.573Z,3.64
2017-04-23T10:41:49.526Z,3.06
2017-04-23T10:42:47.817Z,3.37
2017-04-23T10:43:45.873Z,4.06
2017-04-23T10:44:44.117Z,3.36
2017-04-23T10:45:42.137Z,3.49
2017-04-23T10:46:40.121Z,3.67
2017-04-23T10:47:38.129Z,3.73
2017-04-23T10:48:36.153Z,3.60
2017-04-23T10:49:34.873Z,3.44
2017-04-23T10:50:33.559Z,3.79
2017-04-23T10:51:31.498Z,4.00
2017-04-23T10:52:29.879Z,3.47
2017-04-23T10:53:28.613Z,3.40
2017-04-23T10:54:26.525Z,3.21
2017-04-23T10:55:24.587Z,3.21
2017-04-23T10:56:22.649Z,2.96
2017-04-23T10:57:20.786Z,3.97
2017-04-23T10:58:18.785Z,3.97
2017-04-23T10:59:16.722Z,3.44
2017-04-23T11:00:15.373Z,3.17
2017-04-23T11:01:13.538Z,3.46
2017-04-23T11:02:11.471Z,4.20
2017-04-23T11:03:10.326Z,3.43
2017-04-23T11:04:08.312Z,3.30
2017-04-23T11:05:06.452Z,3.26
2017-04-23T11:06:04.495Z,3.66
2017-04-23T11:07:02.646Z,3.10
2017-04-23T11:08:00.666Z,3.31
2017-04-23T11:08:59.359Z,3.86
2017-04-23T11:09:57.398Z,3.64
2017-04-23T11:10:55.322Z,3.07
2017-04-23T11:11:53.313Z,3.27
2017-04-23T11:12:51.289Z,3.11
2017-04-23T11:13:49.194Z,3.50
2017-04-23T11:14:47.077Z,2.94
2017-04-23T11:15:44.896Z,3.34
2017-04-23T11:16:42.777Z,3.01
2017-04-23T11:17:40.612Z,2.71
2017-04-23T11:18:38.559Z,3.20
2017-04-23T11:19:36.606Z,2.73
2017-04-23T11:20:34.512Z,3.56
2017-04-23T11:21:33.267Z,3.04
2017-04-23T11:22:31.245Z,2.91
2017-04-23T11:23:29.961Z,3.47
2017-04-23T11:24:28.390Z,2.87
2017-04-23T11:25:26.422Z,3.11
2017-04-23T11:26:24.922Z,3.51
2017-04-23T11:27:22.796Z,2.80
2017-04-23T11:28:20.822Z,2.94
2017-04-23T11:29:18.761Z,3.07
2017-04-23T11:30:16.848Z,2.90
2017-04-23T11:31:14.842Z,2.96
2017-04-23T11:32:12.656Z,3.24
2017-04-23T11:33:10.494Z,2.76
2017-04-23T11:34:08.349Z,2.60
2017-04-23T11:35:06.141Z,3.23
2017-04-23T11:36:04.207Z,3.34
2017-04-23T11:37:02.044Z,2.79
2017-04-23T11:38:00.007Z,3.04
2017-04-23T11:38:57.865Z,2.87
2017-04-23T11:39:55.885Z,2.60
2017-04-23T11:40:53.813Z,3.14
2017-04-23T11:41:53.237Z,3.30
2017-04-23T11:42:51.161Z,2.69
2017-04-23T11:43:49.882Z,3.16
2017-04-23T11:44:47.806Z,2.94
2017-04-23T11:45:45.793Z,2.66
2017-04-23T11:46:43.830Z,2.71
2017-04-23T11:47:41.928Z,2.70
2017-04-23T11:48:39.926Z,3.01
2017-04-23T11:49:41.948Z,2.99
2017-04-23T11:50:39.934Z,3.37
2017-04-23T11:51:38.664Z,2.77
2017-04-23T11:52:36.686Z,2.71
2017-04-23T11:53:35.680Z,3.43
2017-04-23T11:54:33.676Z,3.01
2017-04-23T11:55:31.717Z,3.13
2017-04-23T11:56:29.623Z,2.53
2017-04-23T11:57:27.537Z,2.09
2017-04-23T11:58:26.676Z,2.86
2017-04-23T11:59:24.847Z,2.61
2017-04-23T12:00:23.513Z,2.97
2017-04-23T12:01:21.369Z,2.53
2017-04-23T12:02:19.197Z,2.87
2017-04-23T12:03:17.017Z,2.54
2017-04-23T12:04:18.306Z,2.73
2017-04-23T12:05:16.176Z,3.34
2017-04-23T12:06:14.002Z,2.84
2017-04-23T12:07:12.561Z,3.14
2017-04-23T12:08:10.726Z,3.26
2017-04-23T12:09:09.126Z,2.81
2017-04-23T12:10:08.558Z,3.07
2017-04-23T12:11:07.127Z,3.07
2017-04-23T12:12:05.611Z,2.41
2017-04-23T12:13:04.197Z,2.76
2017-04-23T12:14:03.637Z,2.70
2017-04-23T12:15:02.499Z,2.91
2017-04-23T12:16:03.853Z,3.17
2017-04-23T12:17:05.344Z,3.59
2017-04-23T12:18:04.189Z,2.80
2017-04-23T12:19:05.102Z,2.71
2017-04-23T12:20:06.297Z,2.87
2017-04-23T12:21:09.501Z,2.87
2017-04-23T12:22:08.840Z,2.71
2017-04-23T12:23:08.525Z,3.29
2017-04-23T12:24:06.734Z,3.27
2017-04-23T12:25:09.021Z,2.51
2017-04-23T12:26:13.791Z,3.13
2017-04-23T12:27:14.251Z,2.70
2017-04-23T12:28:12.333Z,3.36
2017-04-23T12:29:10.188Z,2.23
2017-04-23T12:30:08.041Z,2.81
2017-04-23T12:31:05.876Z,2.99
2017-04-23T12:32:03.788Z,2.37
2017-04-23T12:33:01.726Z,2.91
2017-04-23T12:34:00.435Z,2.99
2017-04-23T12:34:58.347Z,2.97
2017-04-23T12:35:56.218Z,2.93
2017-04-23T12:36:54.895Z,2.23
2017-04-23T12:37:52.836Z,2.57
2017-04-23T12:38:50.768Z,2.63
2017-04-23T12:39:48.611Z,2.77
2017-04-23T12:40:46.529Z,3.16
2017-04-23T12:41:44.404Z,2.74
2017-04-23T12:42:42.282Z,3.07
2017-04-23T12:43:40.169Z,2.83
2017-04-23T12:44:38.101Z,3.01
2017-04-23T12:45:35.980Z,2.59
2017-04-23T12:46:34.045Z,2.74
2017-04-23T12:47:31.971Z,2.97
2017-04-23T12:48:30.377Z,2.99
2017-04-23T12:49:28.387Z,3.37
2017-04-23T12:51:02.891Z,2.47
2017-04-23T12:52:01.830Z,2.83
2017-04-23T12:52:59.920Z,3.09
2017-04-23T12:53:57.859Z,3.63
2017-04-23T12:54:55.874Z,2.66
2017-04-23T12:55:53.836Z,3.09